Time;durP1;ratioP1;P1;durP2;ratioP2;P2;SDS_P1;SDS_P2;PMS_P1;PMS_P2;Temp;Humidity;BMP_temperature;BMP_pressure;BME280_temperature;BME280_humidity;BME280_pressure;Samples;Min_cycle;Max_cycle;Signal;HPM_P1;HPM_P2
2021/04/17 00:02:21;;;;;;;81.85;46.67;;;;;;;;;;4993789;28;20030;-52
2021/04/17 00:04:48;;;;;;;69.45;39.75;;;;;;;;;;4993568;28;20026;-49
2021/04/17 00:07:15;;;;;;;79.78;46.08;;;;;;;;;;4994090;28;20054;-51
2021/04/17 00:09:41;;;;;;;84.55;47.55;;;;;;;;;;4996869;28;20030;-54
2021/04/17 00:12:17;;;;;;;90.80;51.80;;;;;;;;;;4997804;28;20030;-51
2021/04/17 00:14:44;;;;;;;86.80;49.03;;;;;;;;;;4998135;28;20033;-54
2021/04/17 00:17:10;;;;;;;81.82;46.72;;;;;;;;;;4997623;28;20041;-51
2021/04/17 00:19:36;;;;;;;106.47;61.88;;;;;;;;;;4997517;28;20030;-52
2021/04/17 00:22:02;;;;;;;111.47;64.38;;;;;;;;;;4997694;28;20161;-52
2021/04/17 00:24:28;;;;;;;106.90;58.58;;;;;;;;;;4997540;28;20062;-53
2021/04/17 00:26:55;;;;;;;99.25;56.22;;;;;;;;;;4997616;28;20051;-54
2021/04/17 00:29:21;;;;;;;82.57;49.45;;;;;;;;;;4997443;28;20580;-53
2021/04/17 00:31:47;;;;;;;83.25;47.17;;;;;;;;;;5023546;23;20077;-54
2021/04/17 00:34:13;;;;;;;85.70;48.35;;;;;;;;;;4997316;28;20054;-54
2021/04/17 00:36:39;;;;;;;89.63;52.25;;;;;;;;;;4997457;28;20442;-54
2021/04/17 00:39:06;;;;;;;80.53;48.78;;;;;;;;;;4997633;28;20050;-54
2021/04/17 00:41:32;;;;;;;91.32;51.97;;;;;;;;;;4997564;28;20022;-55
2021/04/17 00:43:59;;;;;;;91.07;48.90;;;;;;;;;;4997559;28;20378;-55
2021/04/17 00:46:25;;;;;;;95.30;53.40;;;;;;;;;;4997213;28;20097;-54
2021/04/17 00:51:17;;;;;;;91.90;52.03;;;;;;;;;;4999933;23;20054;-53
2021/04/17 00:53:44;;;;;;;93.75;54.75;;;;;;;;;;4997172;28;20494;-54
2021/04/17 00:56:11;;;;;;;84.78;48.33;;;;;;;;;;4997071;28;20030;-53
2021/04/17 00:58:37;;;;;;;80.93;45.50;;;;;;;;;;4997010;28;20069;-54
2021/04/17 01:01:04;;;;;;;75.43;41.97;;;;;;;;;;4997234;28;20023;-54
2021/04/17 01:03:35;;;;;;;76.70;43.33;;;;;;;;;;4996944;28;20033;-54
2021/04/17 01:06:07;;;;;;;62.88;38.70;;;;;;;;;;4997113;28;20030;-54
2021/04/17 01:08:33;;;;;;;59.97;37.42;;;;;;;;;;5164704;23;20414;-54
2021/04/17 01:11:01;;;;;;;69.95;39.38;;;;;;;;;;4996640;28;20084;-53
2021/04/17 01:13:28;;;;;;;75.18;43.20;;;;;;;;;;4996662;28;20034;-53
2021/04/17 01:15:55;;;;;;;69.35;41.42;;;;;;;;;;4996727;28;20027;-53
2021/04/17 01:18:22;;;;;;;56.80;34.63;;;;;;;;;;4996595;28;20053;-53
2021/04/17 01:20:51;;;;;;;63.80;36.53;;;;;;;;;;4996284;28;20169;-53
2021/04/17 01:23:26;;;;;;;71.82;35.00;;;;;;;;;;4996536;28;20057;-53
2021/04/17 01:25:58;;;;;;;64.97;36.65;;;;;;;;;;4996572;28;20054;-54
2021/04/17 01:28:26;;;;;;;59.88;36.63;;;;;;;;;;4996666;28;20398;-54
2021/04/17 01:30:53;;;;;;;68.05;39.17;;;;;;;;;;4996471;28;20492;-54
2021/04/17 01:33:21;;;;;;;67.10;39.70;;;;;;;;;;4996386;28;20110;-54
2021/04/17 01:35:47;;;;;;;77.75;44.83;;;;;;;;;;4978779;28;20371;-54
2021/04/17 01:38:19;;;;;;;60.78;37.63;;;;;;;;;;4978652;28;20046;-53
2021/04/17 01:40:47;;;;;;;61.90;38.15;;;;;;;;;;4996170;28;20097;-53
2021/04/17 01:43:14;;;;;;;69.55;40.05;;;;;;;;;;4996097;28;20035;-54
2021/04/17 01:45:41;;;;;;;61.80;38.53;;;;;;;;;;4996110;28;20034;-52
2021/04/17 01:48:08;;;;;;;58.78;36.40;;;;;;;;;;4995989;28;20497;-54
2021/04/17 01:50:37;;;;;;;95.68;54.45;;;;;;;;;;4995949;28;20026;-54
2021/04/17 01:53:03;;;;;;;74.18;44.88;;;;;;;;;;4996021;28;20014;-53
2021/04/17 01:55:31;;;;;;;73.93;44.40;;;;;;;;;;4995882;28;20022;-53
2021/04/17 01:57:58;;;;;;;72.82;42.55;;;;;;;;;;4995970;28;20029;-53
2021/04/17 02:00:24;;;;;;;57.83;35.85;;;;;;;;;;5133779;23;20013;-47
2021/04/17 02:02:53;;;;;;;63.47;39.08;;;;;;;;;;4995630;28;20046;-47
2021/04/17 02:05:22;;;;;;;59.17;37.00;;;;;;;;;;4995691;28;20033;-47
2021/04/17 02:07:48;;;;;;;61.45;37.15;;;;;;;;;;4995831;28;20053;-47
2021/04/17 02:10:14;;;;;;;64.75;38.85;;;;;;;;;;5006025;23;20113;-47
2021/04/17 02:12:40;;;;;;;60.03;35.28;;;;;;;;;;4995626;28;20470;-47
2021/04/17 02:15:07;;;;;;;55.05;35.30;;;;;;;;;;4995506;28;20035;-48
2021/04/17 02:17:49;;;;;;;63.53;37.75;;;;;;;;;;4995440;28;20447;-45
2021/04/17 02:20:19;;;;;;;70.75;39.35;;;;;;;;;;4995351;28;20092;-46
2021/04/17 02:22:45;;;;;;;64.65;37.17;;;;;;;;;;4995390;28;20027;-47
2021/04/17 02:25:12;;;;;;;59.80;34.35;;;;;;;;;;4995412;28;20026;-46
2021/04/17 02:27:39;;;;;;;62.05;37.97;;;;;;;;;;4995263;28;20025;-46
2021/04/17 02:30:07;;;;;;;55.78;34.22;;;;;;;;;;4995142;28;20061;-48
2021/04/17 02:32:34;;;;;;;47.45;30.98;;;;;;;;;;4994629;28;20038;-47
2021/04/17 02:35:00;;;;;;;48.17;30.00;;;;;;;;;;4995226;28;20117;-46
2021/04/17 02:37:26;;;;;;;48.78;30.40;;;;;;;;;;4995063;28;20023;-49
2021/04/17 02:39:52;;;;;;;56.92;35.63;;;;;;;;;;4977657;28;20125;-51
2021/04/17 02:42:18;;;;;;;73.88;44.63;;;;;;;;;;4994957;28;20493;-50
2021/04/17 02:44:44;;;;;;;68.72;41.95;;;;;;;;;;4995229;28;20030;-52
2021/04/17 02:47:11;;;;;;;61.60;38.35;;;;;;;;;;4995096;28;20018;-47
2021/04/17 02:49:37;;;;;;;67.20;38.50;;;;;;;;;;4994971;28;20034;-47
2021/04/17 02:52:05;;;;;;;64.07;38.60;;;;;;;;;;4994737;28;20069;-47
2021/04/17 02:54:32;;;;;;;97.55;51.35;;;;;;;;;;4995317;28;20466;-46
2021/04/17 02:56:58;;;;;;;95.85;56.70;;;;;;;;;;4994754;28;20022;-48
2021/04/17 02:59:24;;;;;;;80.47;45.58;;;;;;;;;;5154443;23;20000;-55
2021/04/17 03:01:50;;;;;;;63.28;39.63;;;;;;;;;;4956799;28;20039;-54
2021/04/17 03:04:18;;;;;;;59.65;36.20;;;;;;;;;;4975172;28;20122;-53
2021/04/17 03:06:44;;;;;;;68.75;40.53;;;;;;;;;;4975236;28;20052;-54
2021/04/17 03:09:12;;;;;;;55.80;39.00;;;;;;;;;;4975030;28;20038;-54
2021/04/17 03:11:39;;;;;;;60.72;41.22;;;;;;;;;;4975337;28;20144;-54
2021/04/17 03:14:05;;;;;;;60.28;39.10;;;;;;;;;;4975044;28;20030;-54
2021/04/17 03:16:31;;;;;;;56.28;37.92;;;;;;;;;;4974990;28;20102;-54
2021/04/17 03:18:57;;;;;;;59.15;37.92;;;;;;;;;;5123464;23;20062;-54
2021/04/17 03:21:23;;;;;;;56.70;35.28;;;;;;;;;;4994485;28;20018;-54
2021/04/17 03:23:49;;;;;;;61.78;37.70;;;;;;;;;;4977149;28;20025;-55
2021/04/17 03:26:15;;;;;;;52.42;34.85;;;;;;;;;;4994286;28;20377;-55
2021/04/17 03:28:41;;;;;;;56.78;35.10;;;;;;;;;;5008189;23;20062;-45
2021/04/17 03:31:07;;;;;;;55.70;33.88;;;;;;;;;;4994533;28;20033;-50
2021/04/17 03:33:34;;;;;;;50.72;34.03;;;;;;;;;;4994244;28;20027;-50
2021/04/17 03:36:00;;;;;;;56.03;35.20;;;;;;;;;;4994221;28;20030;-48
2021/04/17 03:38:26;;;;;;;55.72;33.08;;;;;;;;;;4994395;28;20359;-45
2021/04/17 03:40:54;;;;;;;64.05;36.38;;;;;;;;;;4994079;28;20033;-48
2021/04/17 03:43:20;;;;;;;75.05;39.25;;;;;;;;;;4993235;28;20146;-48
2021/04/17 03:45:46;;;;;;;68.50;38.88;;;;;;;;;;4994070;28;20465;-48
2021/04/17 03:48:12;;;;;;;72.05;38.83;;;;;;;;;;4994228;28;20097;-49
2021/04/17 03:50:41;;;;;;;64.65;36.95;;;;;;;;;;4994047;28;20038;-50
2021/04/17 03:53:09;;;;;;;60.55;35.63;;;;;;;;;;4994100;28;20084;-46
2021/04/17 03:55:36;;;;;;;66.70;37.17;;;;;;;;;;5118461;23;20061;-53
2021/04/17 03:58:02;;;;;;;57.75;35.15;;;;;;;;;;4993894;28;20030;-52
2021/04/17 04:00:28;;;;;;;66.47;38.38;;;;;;;;;;4994057;28;20027;-53
2021/04/17 04:02:54;;;;;;;78.07;45.47;;;;;;;;;;4994055;28;20018;-53
2021/04/17 04:05:20;;;;;;;95.63;61.53;;;;;;;;;;4993939;28;20169;-54
2021/04/17 04:07:46;;;;;;;77.43;47.38;;;;;;;;;;4994064;28;20050;-53
2021/04/17 04:10:13;;;;;;;74.05;45.28;;;;;;;;;;4993700;28;20030;-53
2021/04/17 04:12:40;;;;;;;189.48;109.80;;;;;;;;;;4993769;28;20022;-53
2021/04/17 04:15:06;;;;;;;98.70;57.83;;;;;;;;;;4993824;28;20037;-54
2021/04/17 04:17:32;;;;;;;64.80;40.95;;;;;;;;;;4993747;28;20018;-53
2021/04/17 04:20:01;;;;;;;56.97;36.75;;;;;;;;;;4994018;28;20027;-54
2021/04/17 04:22:29;;;;;;;71.03;40.10;;;;;;;;;;4993945;28;20037;-54
2021/04/17 04:24:55;;;;;;;55.10;37.50;;;;;;;;;;4993954;28;20034;-53
2021/04/17 04:27:21;;;;;;;55.60;34.42;;;;;;;;;;4993553;28;20053;-54
2021/04/17 04:29:47;;;;;;;60.22;39.05;;;;;;;;;;4976210;28;20129;-53
2021/04/17 04:32:13;;;;;;;55.83;35.08;;;;;;;;;;4993623;28;20026;-54
2021/04/17 04:34:39;;;;;;;55.35;34.70;;;;;;;;;;4993811;28;20038;-54
2021/04/17 04:37:05;;;;;;;48.78;31.48;;;;;;;;;;4993902;28;20031;-53
2021/04/17 04:39:31;;;;;;;52.25;33.00;;;;;;;;;;4993779;28;20117;-53
2021/04/17 04:41:58;;;;;;;54.40;34.38;;;;;;;;;;4993655;28;20411;-54
2021/04/17 04:44:24;;;;;;;52.80;31.75;;;;;;;;;;4993074;28;20027;-54
2021/04/17 04:46:50;;;;;;;47.72;30.33;;;;;;;;;;4993650;28;20022;-54
2021/04/17 04:49:16;;;;;;;51.92;32.30;;;;;;;;;;4993408;28;20030;-52
2021/04/17 04:51:42;;;;;;;62.03;37.53;;;;;;;;;;4993820;28;20033;-53
2021/04/17 04:54:08;;;;;;;66.43;39.15;;;;;;;;;;4993974;28;20474;-53
2021/04/17 04:56:34;;;;;;;56.72;36.40;;;;;;;;;;5007846;23;20059;-53
2021/04/17 04:59:00;;;;;;;61.15;36.38;;;;;;;;;;4997243;28;20162;-55
2021/04/17 05:01:27;;;;;;;61.08;35.53;;;;;;;;;;4996984;28;20018;-55
2021/04/17 05:03:53;;;;;;;68.38;36.33;;;;;;;;;;4997034;28;20478;-55
2021/04/17 05:06:19;;;;;;;70.53;38.92;;;;;;;;;;4996911;28;20109;-54
2021/04/17 05:08:45;;;;;;;66.00;39.90;;;;;;;;;;4996859;28;20026;-54
2021/04/17 05:11:11;;;;;;;69.03;39.92;;;;;;;;;;5008907;23;20440;-53
2021/04/17 05:13:37;;;;;;;70.75;41.33;;;;;;;;;;4971643;28;20410;-54
2021/04/17 05:16:03;;;;;;;96.30;44.75;;;;;;;;;;4977392;28;20081;-53
2021/04/17 05:18:29;;;;;;;83.13;46.95;;;;;;;;;;4977293;28;20085;-53
2021/04/17 05:20:55;;;;;;;73.82;44.10;;;;;;;;;;4977130;28;20085;-54
2021/04/17 05:23:22;;;;;;;67.78;41.95;;;;;;;;;;4977674;28;20434;-54
2021/04/17 05:25:48;;;;;;;68.95;41.40;;;;;;;;;;4977129;28;20027;-53
2021/04/17 05:28:14;;;;;;;61.60;36.17;;;;;;;;;;4977193;28;20022;-52
2021/04/17 05:30:40;;;;;;;64.70;39.25;;;;;;;;;;4976924;28;20034;-53
2021/04/17 05:33:06;;;;;;;58.67;37.92;;;;;;;;;;4976256;28;20026;-54
2021/04/17 05:35:32;;;;;;;56.55;33.60;;;;;;;;;;4977148;28;20034;-53
2021/04/17 05:37:58;;;;;;;62.42;33.38;;;;;;;;;;4977143;28;20034;-54
2021/04/17 05:40:24;;;;;;;55.33;35.45;;;;;;;;;;4976847;28;20026;-54
2021/04/17 05:42:50;;;;;;;57.53;32.90;;;;;;;;;;4976672;28;20438;-53
2021/04/17 05:45:17;;;;;;;62.35;36.83;;;;;;;;;;4976737;28;20364;-53
2021/04/17 05:47:43;;;;;;;56.90;33.78;;;;;;;;;;4976756;28;20027;-54
2021/04/17 05:50:09;;;;;;;58.75;34.20;;;;;;;;;;4976895;28;20038;-53
2021/04/17 05:52:35;;;;;;;73.85;40.53;;;;;;;;;;4976764;28;20380;-53
2021/04/17 05:55:01;;;;;;;106.55;59.45;;;;;;;;;;4976626;28;20038;-54
2021/04/17 05:57:27;;;;;;;87.13;47.35;;;;;;;;;;4976553;28;20023;-54
2021/04/17 05:59:53;;;;;;;67.57;40.25;;;;;;;;;;4976551;28;20467;-54
2021/04/17 06:02:19;;;;;;;65.60;39.47;;;;;;;;;;4976661;28;20069;-53
2021/04/17 06:04:46;;;;;;;87.68;48.42;;;;;;;;;;4976374;28;20031;-53
2021/04/17 06:07:12;;;;;;;81.80;48.03;;;;;;;;;;4975500;28;20110;-53
2021/04/17 06:09:38;;;;;;;80.18;47.17;;;;;;;;;;4976281;28;20031;-53
2021/04/17 06:12:04;;;;;;;95.20;52.25;;;;;;;;;;4976042;28;20572;-54
2021/04/17 06:14:33;;;;;;;86.47;50.63;;;;;;;;;;4979587;23;20069;-52
2021/04/17 06:16:59;;;;;;;87.25;49.83;;;;;;;;;;4975756;28;20098;-55
2021/04/17 06:19:25;;;;;;;80.43;46.50;;;;;;;;;;4976301;28;20040;-54
2021/04/17 06:21:53;;;;;;;71.78;42.15;;;;;;;;;;4976321;28;20070;-51
2021/04/17 06:24:22;;;;;;;74.70;41.88;;;;;;;;;;4976128;28;20086;-55
2021/04/17 06:26:48;;;;;;;68.90;39.97;;;;;;;;;;4976166;28;20509;-52
2021/04/17 06:29:14;;;;;;;91.10;41.15;;;;;;;;;;4975613;28;20471;-52
2021/04/17 06:34:19;;;;;;;61.47;35.22;;;;;;;;;;4973985;28;20061;-52
2021/04/17 06:36:48;;;;;;;56.00;31.95;;;;;;;;;;4975766;28;20037;-45
2021/04/17 06:39:14;;;;;;;45.17;21.02;;;;;;;;;;4975721;28;20482;-51
2021/04/17 06:41:42;;;;;;;42.10;23.95;;;;;;;;;;4975893;28;20027;-48
2021/04/17 06:44:09;;;;;;;35.92;21.52;;;;;;;;;;4975638;28;20159;-48
2021/04/17 06:46:38;;;;;;;34.53;22.67;;;;;;;;;;4975611;28;20109;-47
2021/04/17 06:49:06;;;;;;;34.53;21.25;;;;;;;;;;4975691;28;20402;-47
2021/04/17 06:51:34;;;;;;;33.58;21.70;;;;;;;;;;4975633;28;20027;-47
2021/04/17 06:54:00;;;;;;;39.33;23.92;;;;;;;;;;4975509;28;20026;-47
2021/04/17 06:56:26;;;;;;;40.38;24.08;;;;;;;;;;4975354;28;20081;-47
2021/04/17 06:58:52;;;;;;;33.88;21.65;;;;;;;;;;4975323;28;20367;-47
2021/04/17 07:01:18;;;;;;;35.47;22.60;;;;;;;;;;4975443;28;20026;-47
2021/04/17 07:03:44;;;;;;;34.05;20.20;;;;;;;;;;4975185;28;20027;-49
2021/04/17 07:06:11;;;;;;;31.25;20.70;;;;;;;;;;4975201;28;20030;-47
2021/04/17 07:08:40;;;;;;;30.90;20.65;;;;;;;;;;4975267;28;20038;-47
2021/04/17 07:11:08;;;;;;;27.40;17.88;;;;;;;;;;4975197;28;20040;-48
2021/04/17 07:13:35;;;;;;;31.17;21.52;;;;;;;;;;4975017;28;20035;-52
2021/04/17 07:16:12;;;;;;;32.55;21.20;;;;;;;;;;4975077;28;20062;-47
2021/04/17 07:21:13;;;;;;;35.00;22.85;;;;;;;;;;5104695;23;20091;-53
2021/04/17 07:23:43;;;;;;;28.00;20.27;;;;;;;;;;4975002;28;20101;-53
2021/04/17 07:26:09;;;;;;;32.42;21.80;;;;;;;;;;4974833;28;20027;-53
2021/04/17 07:28:36;;;;;;;33.78;22.13;;;;;;;;;;4974965;28;20023;-53
2021/04/17 07:31:02;;;;;;;41.17;23.80;;;;;;;;;;4987390;23;20062;-52
2021/04/17 07:33:29;;;;;;;34.00;23.13;;;;;;;;;;4974983;28;20026;-53
2021/04/17 07:35:56;;;;;;;27.38;19.05;;;;;;;;;;4975008;28;20026;-55
2021/04/17 07:38:22;;;;;;;34.33;20.83;;;;;;;;;;4974857;28;20023;-53
2021/04/17 07:40:59;;;;;;;32.97;20.67;;;;;;;;;;4975236;28;20027;-53
2021/04/17 07:43:43;;;;;;;32.15;21.10;;;;;;;;;;4974916;28;20019;-54
2021/04/17 07:46:10;;;;;;;27.95;18.25;;;;;;;;;;4974656;28;20050;-53
2021/04/17 07:48:36;;;;;;;27.23;19.45;;;;;;;;;;4974547;28;20030;-53
2021/04/17 07:51:04;;;;;;;40.95;25.70;;;;;;;;;;4974371;28;20039;-52
2021/04/17 07:53:43;;;;;;;34.00;21.48;;;;;;;;;;4974799;28;20019;-53
2021/04/17 07:56:24;;;;;;;36.33;23.73;;;;;;;;;;5131805;23;20146;-54
2021/04/17 07:59:00;;;;;;;29.48;19.98;;;;;;;;;;4974556;28;20030;-53
2021/04/17 08:01:29;;;;;;;22.92;16.73;;;;;;;;;;4974174;28;20538;-54
2021/04/17 08:03:56;;;;;;;30.25;20.35;;;;;;;;;;4974448;28;20031;-52
2021/04/17 08:06:23;;;;;;;35.72;23.83;;;;;;;;;;4974607;28;20050;-54
2021/04/17 08:08:50;;;;;;;59.55;35.10;;;;;;;;;;4974516;28;20027;-54
2021/04/17 08:11:20;;;;;;;57.95;34.67;;;;;;;;;;4974278;28;20501;-53
2021/04/17 08:13:48;;;;;;;86.10;54.13;;;;;;;;;;4974433;28;20376;-54
2021/04/17 08:16:15;;;;;;;15.38;12.45;;;;;;;;;;4957302;28;20027;-55
2021/04/17 08:18:41;;;;;;;11.35;9.15;;;;;;;;;;4974130;28;20085;-54
2021/04/17 08:21:08;;;;;;;13.45;10.30;;;;;;;;;;4974145;28;20073;-56
2021/04/17 08:23:35;;;;;;;16.90;12.60;;;;;;;;;;4987015;23;20047;-59
2021/04/17 08:26:04;;;;;;;25.75;17.77;;;;;;;;;;4974446;28;20038;-55
2021/04/17 08:28:32;;;;;;;24.23;16.77;;;;;;;;;;4974380;28;20045;-56
2021/04/17 08:31:17;;;;;;;24.02;16.60;;;;;;;;;;4977539;28;20050;-55
2021/04/17 08:33:43;;;;;;;22.50;14.82;;;;;;;;;;4978106;28;20098;-54
2021/04/17 08:36:09;;;;;;;48.38;25.05;;;;;;;;;;4977818;28;20027;-54
2021/04/17 08:38:36;;;;;;;19.73;13.50;;;;;;;;;;4977732;28;20441;-52
2021/04/17 08:41:02;;;;;;;45.38;25.77;;;;;;;;;;4977732;28;20118;-52
2021/04/17 08:45:59;;;;;;;27.65;18.83;;;;;;;;;;5092256;23;20061;-53
2021/04/17 08:49:04;;;;;;;22.88;17.10;;;;;;;;;;4977844;28;20106;-56
2021/04/17 08:51:39;;;;;;;59.83;34.47;;;;;;;;;;4899278;29;20140;-53
2021/04/17 08:54:05;;;;;;;231.00;132.60;;;;;;;;;;4880202;29;20052;-54
2021/04/17 08:56:50;;;;;;;58.13;39.78;;;;;;;;;;4888307;29;20052;-56
2021/04/17 08:59:31;;;;;;;30.83;19.77;;;;;;;;;;4883752;29;20033;-56
2021/04/17 09:02:00;;;;;;;46.10;29.23;;;;;;;;;;4880266;29;20036;-54
2021/04/17 09:04:26;;;;;;;31.30;22.23;;;;;;;;;;4889224;29;20144;-54
2021/04/17 09:06:54;;;;;;;56.45;26.30;;;;;;;;;;4944634;23;21685;-53
2021/04/17 09:09:24;;;;;;;48.75;23.35;;;;;;;;;;4977548;28;20109;-54
2021/04/17 09:11:51;;;;;;;38.65;19.08;;;;;;;;;;4977424;28;20550;-54
2021/04/17 09:14:31;;;;;;;38.58;20.05;;;;;;;;;;4977342;28;20085;-53
2021/04/17 09:16:58;;;;;;;18.95;13.68;;;;;;;;;;4977236;28;20058;-54
2021/04/17 09:19:40;;;;;;;29.98;17.50;;;;;;;;;;4959818;28;20400;-53
2021/04/17 09:22:34;;;;;;;28.73;16.73;;;;;;;;;;4977063;28;20060;-54
2021/04/17 09:25:12;;;;;;;22.20;15.20;;;;;;;;;;4999990;23;20133;-51
2021/04/17 09:27:39;;;;;;;24.10;15.60;;;;;;;;;;4976998;28;20027;-54
2021/04/17 09:30:10;;;;;;;19.25;14.00;;;;;;;;;;4976795;28;20090;-53
2021/04/17 09:32:39;;;;;;;16.73;13.45;;;;;;;;;;4976968;28;20029;-54
2021/04/17 09:35:17;;;;;;;33.20;19.75;;;;;;;;;;4977372;28;20105;-54
2021/04/17 09:37:58;;;;;;;25.83;16.45;;;;;;;;;;4976881;28;20045;-55
2021/04/17 09:40:24;;;;;;;;;;;;;;;;;;4977112;28;20034;-53
2021/04/17 09:42:50;;;;;;;26.50;17.33;;;;;;;;;;4976633;28;19961;-53
2021/04/17 09:45:28;;;;;;;30.55;19.50;;;;;;;;;;4961700;23;20106;-56
2021/04/17 09:47:55;;;;;;;17.02;12.98;;;;;;;;;;4937209;29;20083;-57
2021/04/17 09:50:22;;;;;;;22.70;16.17;;;;;;;;;;4937558;29;20391;-56
2021/04/17 09:52:48;;;;;;;32.60;17.80;;;;;;;;;;4938012;29;20024;-53
2021/04/17 09:55:14;;;;;;;41.20;18.63;;;;;;;;;;4938118;29;20027;-56
2021/04/17 09:57:47;;;;;;;26.63;14.80;;;;;;;;;;4938084;29;20024;-58
2021/04/17 10:00:14;;;;;;;20.38;13.63;;;;;;;;;;4938052;29;20034;-58
2021/04/17 10:02:43;;;;;;;18.55;13.50;;;;;;;;;;4937012;29;20489;-58
2021/04/17 10:05:11;;;;;;;18.83;13.45;;;;;;;;;;4937410;29;20027;-56
2021/04/17 10:07:44;;;;;;;26.45;14.77;;;;;;;;;;4936177;29;20030;-50
2021/04/17 10:10:11;;;;;;;24.48;16.40;;;;;;;;;;4935088;29;20079;-50
2021/04/17 10:12:51;;;;;;;432.92;322.88;;;;;;;;;;4937327;29;20031;-51
2021/04/17 10:15:21;;;;;;;60.40;40.50;;;;;;;;;;4936557;29;20046;-51
2021/04/17 10:17:50;;;;;;;158.80;96.72;;;;;;;;;;4934671;29;20027;-52
2021/04/17 10:20:16;;;;;;;66.70;29.20;;;;;;;;;;4937077;29;20027;-49
2021/04/17 10:22:49;;;;;;;37.85;26.88;;;;;;;;;;4936552;29;20863;-50
2021/04/17 10:25:32;;;;;;;35.30;24.90;;;;;;;;;;4935197;29;20146;-48
2021/04/17 10:28:09;;;;;;;34.90;21.38;;;;;;;;;;4933955;29;20028;-50
2021/04/17 10:30:36;;;;;;;144.85;96.97;;;;;;;;;;4934279;29;20094;-51
2021/04/17 10:33:02;;;;;;;26.90;20.08;;;;;;;;;;4935947;29;20016;-50
2021/04/17 10:35:33;;;;;;;32.35;23.90;;;;;;;;;;4935958;29;20417;-51
2021/04/17 10:38:00;;;;;;;25.90;19.73;;;;;;;;;;4934655;29;20608;-47
2021/04/17 10:40:26;;;;;;;62.33;37.22;;;;;;;;;;4936090;29;20028;-46
2021/04/17 10:42:57;;;;;;;76.10;47.40;;;;;;;;;;4935559;29;20028;-46
2021/04/17 10:45:37;;;;;;;58.17;36.27;;;;;;;;;;4936410;29;20062;-49
2021/04/17 10:48:06;;;;;;;48.85;24.42;;;;;;;;;;4937218;29;20261;-48
2021/04/17 10:50:34;;;;;;;20.27;14.60;;;;;;;;;;4936941;29;20480;-52
2021/04/17 10:53:01;;;;;;;39.78;19.65;;;;;;;;;;4936235;29;20487;-52
2021/04/17 10:55:34;;;;;;;25.95;15.60;;;;;;;;;;4936780;29;20020;-52
2021/04/17 10:58:00;;;;;;;28.30;15.63;;;;;;;;;;4917487;29;20039;-50
2021/04/17 11:00:31;;;;;;;23.45;14.15;;;;;;;;;;4908288;29;20032;-49
2021/04/17 11:02:57;;;;;;;33.47;14.57;;;;;;;;;;5073442;23;20458;-45
2021/04/17 11:05:23;;;;;;;16.23;11.38;;;;;;;;;;4946069;28;20031;-44
2021/04/17 11:07:57;;;;;;;36.05;13.48;;;;;;;;;;4947401;28;20034;-44
2021/04/17 11:10:29;;;;;;;17.20;11.70;;;;;;;;;;4946560;28;20042;-45
2021/04/17 11:12:55;;;;;;;;;;;;;;;;;;4946026;28;20411;-49
2021/04/17 11:15:24;;;;;;;59.83;36.20;;;;;;;;;;4944627;28;20381;-45
2021/04/17 11:18:08;;;;;;;71.80;46.75;;;;;;;;;;4944707;28;20534;-47
2021/04/17 11:23:00;;;;;;;66.95;39.10;;;;;;;;;;5079249;23;20060;-53
2021/04/17 11:25:26;;;;;;;114.03;69.38;;;;;;;;;;4945868;28;20027;-56
2021/04/17 11:27:52;;;;;;;29.95;20.05;;;;;;;;;;4944499;28;20035;-54
2021/04/17 11:30:18;;;;;;;44.25;23.63;;;;;;;;;;4945973;28;20595;-52
2021/04/17 11:32:44;;;;;;;24.08;18.20;;;;;;;;;;4944903;28;20019;-49
2021/04/17 11:35:11;;;;;;;27.17;13.88;;;;;;;;;;4945124;28;20069;-52
2021/04/17 11:37:37;;;;;;;26.35;16.48;;;;;;;;;;4944771;28;20111;-51
2021/04/17 11:40:03;;;;;;;27.48;16.02;;;;;;;;;;4971623;23;20055;-45
2021/04/17 11:42:29;;;;;;;61.75;34.83;;;;;;;;;;4948413;28;20408;-48
2021/04/17 11:44:57;;;;;;;76.22;46.47;;;;;;;;;;4944673;28;20098;-43
2021/04/17 11:47:23;;;;;;;33.47;22.90;;;;;;;;;;4944806;28;20019;-46
2021/04/17 11:49:50;;;;;;;49.38;30.13;;;;;;;;;;4944707;28;20031;-46
2021/04/17 11:52:17;;;;;;;26.98;16.88;;;;;;;;;;4944358;28;20113;-46
2021/04/17 11:54:43;;;;;;;26.13;17.27;;;;;;;;;;4945537;28;20026;-45
2021/04/17 11:57:09;;;;;;;19.70;15.25;;;;;;;;;;4944454;28;20517;-46
2021/04/17 11:59:35;;;;;;;19.17;13.57;;;;;;;;;;5076887;23;20050;-45
2021/04/17 12:02:01;;;;;;;21.80;15.95;;;;;;;;;;4934635;28;20043;-44
2021/04/17 12:04:27;;;;;;;18.20;13.25;;;;;;;;;;4939486;28;20019;-44
2021/04/17 12:06:53;;;;;;;23.25;13.32;;;;;;;;;;4942172;29;20031;-46
2021/04/17 12:09:22;;;;;;;21.75;12.52;;;;;;;;;;4942213;29;20172;-47
2021/04/17 12:11:48;;;;;;;17.10;12.98;;;;;;;;;;4942119;29;20038;-45
2021/04/17 12:14:14;;;;;;;21.20;14.65;;;;;;;;;;4942419;29;20880;-45
2021/04/17 12:16:40;;;;;;;16.92;12.52;;;;;;;;;;4940543;29;20043;-46
2021/04/17 12:19:06;;;;;;;17.33;12.57;;;;;;;;;;4942075;29;20339;-46
2021/04/17 12:21:32;;;;;;;34.42;13.68;;;;;;;;;;4942129;29;20031;-46
2021/04/17 12:23:59;;;;;;;22.83;15.20;;;;;;;;;;4942134;29;20346;-45
2021/04/17 12:26:25;;;;;;;24.95;15.00;;;;;;;;;;4942189;29;20027;-45
2021/04/17 12:28:51;;;;;;;22.15;13.40;;;;;;;;;;4942064;29;20762;-46
2021/04/17 12:31:17;;;;;;;28.08;15.10;;;;;;;;;;4942092;28;20043;-46
2021/04/17 12:33:43;;;;;;;38.55;14.65;;;;;;;;;;4941532;29;20027;-45
2021/04/17 12:36:09;;;;;;;22.42;14.38;;;;;;;;;;4941744;29;20081;-44
2021/04/17 12:38:35;;;;;;;27.23;18.83;;;;;;;;;;4941638;29;20126;-44
2021/04/17 12:41:01;;;;;;;25.90;18.58;;;;;;;;;;4941633;29;20023;-44
2021/04/17 12:43:27;;;;;;;39.10;25.00;;;;;;;;;;4941633;29;20027;-45
2021/04/17 12:45:53;;;;;;;56.75;34.85;;;;;;;;;;4941897;29;20035;-44
2021/04/17 12:51:01;;;;;;;60.85;37.35;;;;;;;;;;4954124;28;21696;-46
2021/04/17 12:53:27;;;;;;;45.15;25.85;;;;;;;;;;4948122;28;20034;-47
2021/04/17 12:55:56;;;;;;;35.67;23.02;;;;;;;;;;4947983;28;20031;-47
2021/04/17 12:58:22;;;;;;;32.72;22.00;;;;;;;;;;4948976;28;20467;-46
2021/04/17 13:00:49;;;;;;;22.02;16.70;;;;;;;;;;4947534;28;20046;-46
2021/04/17 13:03:15;;;;;;;38.28;25.90;;;;;;;;;;4947817;28;20102;-45
2021/04/17 13:05:42;;;;;;;47.22;28.50;;;;;;;;;;4940842;28;20030;-47
2021/04/17 13:08:08;;;;;;;35.38;22.90;;;;;;;;;;4947247;28;20031;-47
2021/04/17 13:10:34;;;;;;;55.95;35.03;;;;;;;;;;4981001;23;20042;-45
2021/04/17 13:13:02;;;;;;;29.20;21.00;;;;;;;;;;4987553;28;20030;-44
2021/04/17 13:15:28;;;;;;;28.42;19.48;;;;;;;;;;4985188;28;20021;-44
2021/04/17 13:17:54;;;;;;;20.83;14.93;;;;;;;;;;4985615;28;20023;-44
2021/04/17 13:20:20;;;;;;;23.15;16.48;;;;;;;;;;4985739;28;20747;-44
2021/04/17 13:22:46;;;;;;;31.65;21.50;;;;;;;;;;4985350;28;20018;-45
2021/04/17 13:25:13;;;;;;;49.30;30.23;;;;;;;;;;4985567;28;20033;-45
2021/04/17 13:27:39;;;;;;;37.10;25.42;;;;;;;;;;4985499;28;20026;-44
2021/04/17 13:30:06;;;;;;;60.40;39.28;;;;;;;;;;4977451;23;20059;-53
2021/04/17 13:32:32;;;;;;;35.05;23.35;;;;;;;;;;4932926;28;20415;-53
2021/04/17 13:34:58;;;;;;;44.67;29.85;;;;;;;;;;4928441;28;20415;-54
2021/04/17 13:37:26;;;;;;;49.13;29.17;;;;;;;;;;4928485;28;20134;-53
2021/04/17 13:39:52;;;;;;;29.40;19.67;;;;;;;;;;4928145;28;20035;-53
2021/04/17 13:42:20;;;;;;;19.92;14.98;;;;;;;;;;4927962;28;20027;-51
2021/04/17 13:44:46;;;;;;;18.65;12.75;;;;;;;;;;4927770;28;20763;-52
2021/04/17 13:47:12;;;;;;;27.50;20.23;;;;;;;;;;4926195;28;20039;-53
2021/04/17 13:49:38;;;;;;;72.07;42.60;;;;;;;;;;4927897;28;20035;-54
2021/04/17 13:52:06;;;;;;;39.50;25.98;;;;;;;;;;4947835;23;20027;-45
2021/04/17 13:54:32;;;;;;;81.40;52.50;;;;;;;;;;4936560;28;20059;-47
2021/04/17 13:56:58;;;;;;;59.65;38.33;;;;;;;;;;4928539;28;20145;-47
2021/04/17 13:59:26;;;;;;;42.53;25.92;;;;;;;;;;4927883;28;20020;-47
2021/04/17 14:01:52;;;;;;;36.67;24.13;;;;;;;;;;4927660;28;20027;-48
2021/04/17 14:04:19;;;;;;;42.92;27.85;;;;;;;;;;4927517;28;20099;-47
2021/04/17 14:06:48;;;;;;;58.25;35.25;;;;;;;;;;4930102;28;20129;-48
2021/04/17 14:09:14;;;;;;;29.48;20.40;;;;;;;;;;4929384;28;20031;-46
2021/04/17 14:11:40;;;;;;;35.50;23.30;;;;;;;;;;4930550;28;20023;-46
2021/04/17 14:14:06;;;;;;;39.85;21.58;;;;;;;;;;4928036;28;20061;-46
2021/04/17 14:16:32;;;;;;;28.30;19.23;;;;;;;;;;4946675;23;20020;-54
2021/04/17 14:18:58;;;;;;;24.38;16.77;;;;;;;;;;4950669;28;20066;-53
2021/04/17 14:21:25;;;;;;;19.40;14.57;;;;;;;;;;4945819;28;20223;-50
2021/04/17 14:23:53;;;;;;;22.65;15.88;;;;;;;;;;4946036;28;20471;-49
2021/04/17 14:26:19;;;;;;;21.77;15.32;;;;;;;;;;4945876;28;20031;-53
2021/04/17 14:28:47;;;;;;;22.90;17.23;;;;;;;;;;4945254;28;20027;-51
2021/04/17 14:31:15;;;;;;;23.75;15.63;;;;;;;;;;4949488;28;20050;-52
2021/04/17 14:33:41;;;;;;;31.35;18.20;;;;;;;;;;4949891;28;20027;-51
2021/04/17 14:36:08;;;;;;;36.20;21.73;;;;;;;;;;4945762;28;20066;-51